sensor_id;sensor_type;location;lat;lon;timestamp;pressure;altitude;pressure_sealevel;temperature;humidity
72330;BME280;69154;52.076;5.110;2023-04-25T00:01:57;101170.39;;;7.52;31.93
72330;BME280;69154;52.076;5.110;2023-04-25T00:04:23;101175.39;;;7.20;31.77
72330;BME280;69154;52.076;5.110;2023-04-25T00:06:48;101174.03;;;4.70;35.10
72330;BME280;69154;52.076;5.110;2023-04-25T00:09:14;101174.46;;;4.26;36.21
72330;BME280;69154;52.076;5.110;2023-04-25T00:11:40;101178.15;;;2.47;38.32
72330;BME280;69154;52.076;5.110;2023-04-25T00:14:05;101175.96;;;3.53;37.72
72330;BME280;69154;52.076;5.110;2023-04-25T00:16:30;101175.71;;;3.36;37.49
72330;BME280;69154;52.076;5.110;2023-04-25T00:18:56;101175.96;;;4.04;37.27
72330;BME280;69154;52.076;5.110;2023-04-25T00:21:21;101179.56;;;3.93;36.75
72330;BME280;69154;52.076;5.110;2023-04-25T00:23:47;101180.98;;;4.29;35.34
72330;BME280;69154;52.076;5.110;2023-04-25T00:26:12;101182.55;;;4.48;35.67
72330;BME280;69154;52.076;5.110;2023-04-25T00:28:39;101187.00;;;6.00;33.00
72330;BME280;69154;52.076;5.110;2023-04-25T00:31:03;101187.53;;;5.90;32.62
72330;BME280;69154;52.076;5.110;2023-04-25T00:33:29;101188.28;;;5.71;32.24
72330;BME280;69154;52.076;5.110;2023-04-25T00:35:55;101188.65;;;6.40;32.18
72330;BME280;69154;52.076;5.110;2023-04-25T00:38:20;101187.85;;;7.38;31.12
72330;BME280;69154;52.076;5.110;2023-04-25T00:40:45;101188.51;;;6.74;30.62
72330;BME280;69154;52.076;5.110;2023-04-25T00:43:10;101187.04;;;6.84;31.27
72330;BME280;69154;52.076;5.110;2023-04-25T00:45:38;101188.61;;;6.13;31.33
72330;BME280;69154;52.076;5.110;2023-04-25T00:48:02;101188.51;;;6.89;30.81
72330;BME280;69154;52.076;5.110;2023-04-25T00:50:28;101189.36;;;7.21;30.68
72330;BME280;69154;52.076;5.110;2023-04-25T00:52:53;101188.84;;;6.78;30.98
72330;BME280;69154;52.076;5.110;2023-04-25T00:55:19;101184.73;;;4.78;32.68
72330;BME280;69154;52.076;5.110;2023-04-25T00:57:43;101184.58;;;5.56;31.78
72330;BME280;69154;52.076;5.110;2023-04-25T01:00:11;101187.03;;;6.76;30.95
72330;BME280;69154;52.076;5.110;2023-04-25T01:02:36;101191.27;;;5.83;30.98
72330;BME280;69154;52.076;5.110;2023-04-25T01:05:00;101194.11;;;5.94;30.86
72330;BME280;69154;52.076;5.110;2023-04-25T01:07:25;101192.87;;;6.45;30.69
72330;BME280;69154;52.076;5.110;2023-04-25T01:09:51;101195.35;;;6.49;31.10
72330;BME280;69154;52.076;5.110;2023-04-25T01:12:16;101196.12;;;6.28;31.18
72330;BME280;69154;52.076;5.110;2023-04-25T01:14:41;101197.45;;;6.17;31.48
72330;BME280;69154;52.076;5.110;2023-04-25T01:17:07;101196.52;;;6.55;30.86
72330;BME280;69154;52.076;5.110;2023-04-25T01:19:32;101195.25;;;6.44;30.58
72330;BME280;69154;52.076;5.110;2023-04-25T01:21:58;101191.85;;;6.42;31.02
72330;BME280;69154;52.076;5.110;2023-04-25T01:24:23;101194.98;;;6.99;30.53
72330;BME280;69154;52.076;5.110;2023-04-25T01:26:49;101193.42;;;5.52;31.40
72330;BME280;69154;52.076;5.110;2023-04-25T01:29:14;101198.35;;;6.06;31.06
72330;BME280;69154;52.076;5.110;2023-04-25T01:31:39;101204.92;;;5.60;31.39
72330;BME280;69154;52.076;5.110;2023-04-25T01:34:05;101206.56;;;6.22;30.97
72330;BME280;69154;52.076;5.110;2023-04-25T01:36:30;101210.00;;;6.63;30.52
72330;BME280;69154;52.076;5.110;2023-04-25T01:38:56;101213.51;;;6.95;29.81
72330;BME280;69154;52.076;5.110;2023-04-25T01:41:22;101213.07;;;7.87;29.44
72330;BME280;69154;52.076;5.110;2023-04-25T01:43:47;101216.42;;;6.81;29.68
72330;BME280;69154;52.076;5.110;2023-04-25T01:46:13;101218.63;;;6.78;30.47
72330;BME280;69154;52.076;5.110;2023-04-25T01:48:38;101218.42;;;5.84;30.66
72330;BME280;69154;52.076;5.110;2023-04-25T01:51:03;101223.39;;;7.33;30.08
72330;BME280;69154;52.076;5.110;2023-04-25T01:53:29;101225.24;;;6.29;30.46
72330;BME280;69154;52.076;5.110;2023-04-25T01:55:54;101227.20;;;7.35;30.40
72330;BME280;69154;52.076;5.110;2023-04-25T01:58:20;101228.43;;;6.91;30.75
72330;BME280;69154;52.076;5.110;2023-04-25T02:00:46;101232.77;;;7.12;30.23
72330;BME280;69154;52.076;5.110;2023-04-25T02:03:10;101232.79;;;6.57;30.20
72330;BME280;69154;52.076;5.110;2023-04-25T02:05:37;101238.08;;;7.37;28.75
72330;BME280;69154;52.076;5.110;2023-04-25T02:08:02;101234.96;;;6.51;30.07
72330;BME280;69154;52.076;5.110;2023-04-25T02:10:27;101239.40;;;7.40;29.65
72330;BME280;69154;52.076;5.110;2023-04-25T02:12:52;101232.10;;;7.97;28.78
72330;BME280;69154;52.076;5.110;2023-04-25T02:15:19;101230.74;;;7.84;28.58
72330;BME280;69154;52.076;5.110;2023-04-25T02:17:43;101234.07;;;7.04;28.79
72330;BME280;69154;52.076;5.110;2023-04-25T02:20:10;101234.58;;;7.38;28.62
72330;BME280;69154;52.076;5.110;2023-04-25T02:22:35;101236.93;;;7.90;27.97
72330;BME280;69154;52.076;5.110;2023-04-25T02:25:05;101236.70;;;8.41;28.32
72330;BME280;69154;52.076;5.110;2023-04-25T02:27:25;101236.72;;;7.94;28.21
72330;BME280;69154;52.076;5.110;2023-04-25T02:29:51;101239.73;;;7.76;28.43
72330;BME280;69154;52.076;5.110;2023-04-25T02:32:16;101235.49;;;8.96;27.56
72330;BME280;69154;52.076;5.110;2023-04-25T02:34:41;101237.08;;;7.19;28.50
72330;BME280;69154;52.076;5.110;2023-04-25T02:37:07;101237.98;;;6.87;29.31
72330;BME280;69154;52.076;5.110;2023-04-25T02:39:32;101238.59;;;7.37;28.63
72330;BME280;69154;52.076;5.110;2023-04-25T02:41:58;101240.25;;;8.43;28.56
72330;BME280;69154;52.076;5.110;2023-04-25T02:44:23;101236.77;;;8.30;28.73
72330;BME280;69154;52.076;5.110;2023-04-25T02:46:49;101239.69;;;9.00;27.92
72330;BME280;69154;52.076;5.110;2023-04-25T02:49:15;101237.65;;;8.14;28.52
72330;BME280;69154;52.076;5.110;2023-04-25T02:51:41;101238.33;;;6.94;28.65
72330;BME280;69154;52.076;5.110;2023-04-25T02:54:06;101239.78;;;8.46;28.45
72330;BME280;69154;52.076;5.110;2023-04-25T02:56:31;101240.93;;;7.64;28.50
72330;BME280;69154;52.076;5.110;2023-04-25T02:58:56;101241.33;;;9.33;27.45
72330;BME280;69154;52.076;5.110;2023-04-25T03:01:22;101246.06;;;7.84;28.45
72330;BME280;69154;52.076;5.110;2023-04-25T03:03:47;101242.91;;;8.47;28.41
72330;BME280;69154;52.076;5.110;2023-04-25T03:06:13;101245.09;;;9.83;26.97
72330;BME280;69154;52.076;5.110;2023-04-25T03:08:38;101246.29;;;7.50;28.50
72330;BME280;69154;52.076;5.110;2023-04-25T03:11:03;101248.81;;;8.32;28.16
72330;BME280;69154;52.076;5.110;2023-04-25T03:13:30;101248.00;;;8.52;27.76
72330;BME280;69154;52.076;5.110;2023-04-25T03:15:54;101248.02;;;8.57;27.76
72330;BME280;69154;52.076;5.110;2023-04-25T03:18:20;101254.64;;;9.27;27.53
72330;BME280;69154;52.076;5.110;2023-04-25T03:20:45;101259.18;;;7.98;28.14
72330;BME280;69154;52.076;5.110;2023-04-25T03:23:10;101273.60;;;6.29;29.28
72330;BME280;69154;52.076;5.110;2023-04-25T03:25:36;101290.77;;;2.07;36.28
72330;BME280;69154;52.076;5.110;2023-04-25T03:28:02;101298.52;;;1.00;40.10
72330;BME280;69154;52.076;5.110;2023-04-25T03:30:27;101290.41;;;1.48;39.50
72330;BME280;69154;52.076;5.110;2023-04-25T03:32:52;101284.73;;;1.87;38.73
72330;BME280;69154;52.076;5.110;2023-04-25T03:35:18;101262.76;;;2.27;37.56
72330;BME280;69154;52.076;5.110;2023-04-25T03:37:43;101256.95;;;1.08;37.20
72330;BME280;69154;52.076;5.110;2023-04-25T03:40:09;101254.54;;;3.89;33.39
72330;BME280;69154;52.076;5.110;2023-04-25T03:42:34;101252.90;;;4.42;32.38
72330;BME280;69154;52.076;5.110;2023-04-25T03:45:00;101250.24;;;5.40;31.41
72330;BME280;69154;52.076;5.110;2023-04-25T03:47:26;101254.46;;;6.15;30.86
72330;BME280;69154;52.076;5.110;2023-04-25T03:49:51;101256.05;;;6.04;30.67
72330;BME280;69154;52.076;5.110;2023-04-25T03:52:16;101256.87;;;6.66;30.10
72330;BME280;69154;52.076;5.110;2023-04-25T03:54:42;101258.05;;;7.02;29.44
72330;BME280;69154;52.076;5.110;2023-04-25T03:57:08;101264.30;;;7.37;29.35
72330;BME280;69154;52.076;5.110;2023-04-25T03:59:33;101271.09;;;6.68;28.92
72330;BME280;69154;52.076;5.110;2023-04-25T04:01:58;101274.24;;;7.75;28.63
72330;BME280;69154;52.076;5.110;2023-04-25T04:04:24;101277.92;;;7.40;28.40
72330;BME280;69154;52.076;5.110;2023-04-25T04:06:49;101281.23;;;7.25;28.71
72330;BME280;69154;52.076;5.110;2023-04-25T04:09:15;101287.48;;;7.82;28.09
72330;BME280;69154;52.076;5.110;2023-04-25T04:11:41;101292.74;;;7.90;27.66
72330;BME280;69154;52.076;5.110;2023-04-25T04:14:06;101288.73;;;6.33;29.15
72330;BME280;69154;52.076;5.110;2023-04-25T04:16:31;101292.64;;;4.99;30.33
72330;BME280;69154;52.076;5.110;2023-04-25T04:18:57;101296.00;;;5.30;30.62
72330;BME280;69154;52.076;5.110;2023-04-25T04:21:22;101297.38;;;5.18;30.30
72330;BME280;69154;52.076;5.110;2023-04-25T04:23:48;101301.96;;;4.33;31.38
72330;BME280;69154;52.076;5.110;2023-04-25T04:26:13;101307.30;;;4.08;32.29
72330;BME280;69154;52.076;5.110;2023-04-25T04:28:39;101314.92;;;3.56;32.67
72330;BME280;69154;52.076;5.110;2023-04-25T04:31:05;101314.18;;;4.31;32.86
72330;BME280;69154;52.076;5.110;2023-04-25T04:33:30;101318.79;;;2.94;34.00
72330;BME280;69154;52.076;5.110;2023-04-25T04:35:55;101322.09;;;3.30;34.13
72330;BME280;69154;52.076;5.110;2023-04-25T04:38:20;101323.07;;;3.97;33.72
72330;BME280;69154;52.076;5.110;2023-04-25T04:40:46;101326.29;;;3.19;33.59
72330;BME280;69154;52.076;5.110;2023-04-25T04:43:11;101324.66;;;4.00;33.89
72330;BME280;69154;52.076;5.110;2023-04-25T04:45:37;101324.62;;;4.10;32.80
72330;BME280;69154;52.076;5.110;2023-04-25T04:48:03;101321.71;;;4.88;32.56
72330;BME280;69154;52.076;5.110;2023-04-25T04:50:28;101323.04;;;4.44;32.23
72330;BME280;69154;52.076;5.110;2023-04-25T04:52:53;101321.97;;;4.71;31.95
72330;BME280;69154;52.076;5.110;2023-04-25T04:55:20;101324.23;;;5.18;32.20
72330;BME280;69154;52.076;5.110;2023-04-25T04:57:44;101324.48;;;5.04;31.19
72330;BME280;69154;52.076;5.110;2023-04-25T05:00:11;101331.31;;;6.22;30.98
72330;BME280;69154;52.076;5.110;2023-04-25T05:02:36;101334.03;;;5.39;31.13
72330;BME280;69154;52.076;5.110;2023-04-25T05:05:01;101337.02;;;6.72;30.83
72330;BME280;69154;52.076;5.110;2023-04-25T05:07:26;101337.91;;;5.53;31.02
72330;BME280;69154;52.076;5.110;2023-04-25T05:09:51;101344.99;;;5.70;31.18
72330;BME280;69154;52.076;5.110;2023-04-25T05:12:18;101344.60;;;5.40;31.94
72330;BME280;69154;52.076;5.110;2023-04-25T05:14:43;101345.35;;;4.44;31.90
72330;BME280;69154;52.076;5.110;2023-04-25T05:17:08;101348.05;;;4.46;32.12
72330;BME280;69154;52.076;5.110;2023-04-25T05:19:34;101350.65;;;3.27;32.52
72330;BME280;69154;52.076;5.110;2023-04-25T05:21:59;101362.11;;;3.71;32.84
72330;BME280;69154;52.076;5.110;2023-04-25T05:24:24;101366.45;;;4.13;33.22
72330;BME280;69154;52.076;5.110;2023-04-25T05:26:50;101363.44;;;4.74;32.24
72330;BME280;69154;52.076;5.110;2023-04-25T05:29:15;101361.20;;;5.72;31.44
72330;BME280;69154;52.076;5.110;2023-04-25T05:31:41;101366.73;;;5.73;30.81
72330;BME280;69154;52.076;5.110;2023-04-25T05:34:07;101368.15;;;6.69;30.32
72330;BME280;69154;52.076;5.110;2023-04-25T05:36:32;101366.28;;;5.90;30.45
72330;BME280;69154;52.076;5.110;2023-04-25T05:38:57;101366.29;;;6.50;29.54
72330;BME280;69154;52.076;5.110;2023-04-25T05:41:23;101367.18;;;6.27;29.60
72330;BME280;69154;52.076;5.110;2023-04-25T05:43:48;101373.32;;;7.64;28.56
72330;BME280;69154;52.076;5.110;2023-04-25T05:46:13;101379.38;;;8.47;27.81
72330;BME280;69154;52.076;5.110;2023-04-25T05:48:39;101382.02;;;8.19;27.40
72330;BME280;69154;52.076;5.110;2023-04-25T05:51:05;101386.13;;;8.24;26.67
72330;BME280;69154;52.076;5.110;2023-04-25T05:53:30;101388.11;;;8.18;26.52
72330;BME280;69154;52.076;5.110;2023-04-25T05:55:55;101391.26;;;8.88;26.61
72330;BME280;69154;52.076;5.110;2023-04-25T05:58:21;101386.98;;;7.43;26.70
72330;BME280;69154;52.076;5.110;2023-04-25T06:00:46;101388.89;;;8.00;26.79
72330;BME280;69154;52.076;5.110;2023-04-25T06:03:12;101394.01;;;7.14;26.78
72330;BME280;69154;52.076;5.110;2023-04-25T06:05:37;101396.64;;;6.72;27.20
72330;BME280;69154;52.076;5.110;2023-04-25T06:08:03;101393.38;;;6.91;27.43
72330;BME280;69154;52.076;5.110;2023-04-25T06:10:28;101393.74;;;6.77;27.08
72330;BME280;69154;52.076;5.110;2023-04-25T06:12:53;101399.39;;;8.25;26.82
72330;BME280;69154;52.076;5.110;2023-04-25T06:15:19;101400.51;;;7.23;26.75
72330;BME280;69154;52.076;5.110;2023-04-25T06:17:44;101410.00;;;7.37;27.05
72330;BME280;69154;52.076;5.110;2023-04-25T06:20:10;101414.71;;;8.46;27.83
72330;BME280;69154;52.076;5.110;2023-04-25T06:22:34;101415.87;;;7.33;27.57
72330;BME280;69154;52.076;5.110;2023-04-25T06:25:00;101414.28;;;7.62;27.28
72330;BME280;69154;52.076;5.110;2023-04-25T06:27:25;101423.23;;;8.73;26.73
72330;BME280;69154;52.076;5.110;2023-04-25T06:29:51;101419.46;;;8.29;27.03
72330;BME280;69154;52.076;5.110;2023-04-25T06:32:16;101419.91;;;9.53;26.62
72330;BME280;69154;52.076;5.110;2023-04-25T06:34:41;101424.75;;;9.30;25.99
72330;BME280;69154;52.076;5.110;2023-04-25T06:37:07;101430.90;;;9.41;26.37
72330;BME280;69154;52.076;5.110;2023-04-25T06:39:32;101430.41;;;6.95;26.46
72330;BME280;69154;52.076;5.110;2023-04-25T06:41:58;101436.04;;;9.14;26.63
72330;BME280;69154;52.076;5.110;2023-04-25T06:44:23;101444.03;;;8.70;26.91
72330;BME280;69154;52.076;5.110;2023-04-25T06:46:48;101442.44;;;8.48;27.07
72330;BME280;69154;52.076;5.110;2023-04-25T06:49:14;101444.53;;;8.06;27.73
72330;BME280;69154;52.076;5.110;2023-04-25T06:51:40;101448.88;;;8.36;28.00
72330;BME280;69154;52.076;5.110;2023-04-25T06:54:04;101452.57;;;10.68;27.74
72330;BME280;69154;52.076;5.110;2023-04-25T06:56:30;101447.97;;;11.47;26.10
72330;BME280;69154;52.076;5.110;2023-04-25T06:58:55;101446.07;;;14.00;24.26
72330;BME280;69154;52.076;5.110;2023-04-25T07:01:21;101453.57;;;15.31;22.43
72330;BME280;69154;52.076;5.110;2023-04-25T07:03:46;101450.00;;;12.54;23.21
72330;BME280;69154;52.076;5.110;2023-04-25T07:06:11;101452.69;;;11.70;23.32
72330;BME280;69154;52.076;5.110;2023-04-25T07:08:36;101452.29;;;12.11;23.96
72330;BME280;69154;52.076;5.110;2023-04-25T07:11:02;101455.65;;;11.47;23.24
72330;BME280;69154;52.076;5.110;2023-04-25T07:13:27;101459.09;;;10.26;25.34
72330;BME280;69154;52.076;5.110;2023-04-25T07:15:53;101456.00;;;10.63;24.92
72330;BME280;69154;52.076;5.110;2023-04-25T07:18:18;101462.55;;;10.35;25.29
72330;BME280;69154;52.076;5.110;2023-04-25T07:20:42;101462.25;;;9.52;25.50
72330;BME280;69154;52.076;5.110;2023-04-25T07:23:08;101458.53;;;10.14;24.72
72330;BME280;69154;52.076;5.110;2023-04-25T07:25:33;101463.16;;;9.57;25.59
72330;BME280;69154;52.076;5.110;2023-04-25T07:27:58;101464.37;;;8.62;25.18
72330;BME280;69154;52.076;5.110;2023-04-25T07:30:24;101470.43;;;10.18;25.36
72330;BME280;69154;52.076;5.110;2023-04-25T07:32:49;101475.38;;;8.80;26.10
72330;BME280;69154;52.076;5.110;2023-04-25T07:35:16;101483.97;;;8.30;27.70
72330;BME280;69154;52.076;5.110;2023-04-25T07:37:40;101487.13;;;5.50;28.45
72330;BME280;69154;52.076;5.110;2023-04-25T07:40:06;101490.65;;;5.51;29.03
72330;BME280;69154;52.076;5.110;2023-04-25T07:42:31;101494.86;;;4.76;28.56
72330;BME280;69154;52.076;5.110;2023-04-25T07:44:56;101491.58;;;6.16;28.54
72330;BME280;69154;52.076;5.110;2023-04-25T07:47:21;101495.88;;;8.03;26.82
72330;BME280;69154;52.076;5.110;2023-04-25T07:49:47;101495.10;;;7.39;26.72
72330;BME280;69154;52.076;5.110;2023-04-25T07:52:12;101494.92;;;8.05;25.82
72330;BME280;69154;52.076;5.110;2023-04-25T07:54:37;101495.29;;;7.54;23.96
72330;BME280;69154;52.076;5.110;2023-04-25T07:57:05;101500.24;;;8.81;23.97
72330;BME280;69154;52.076;5.110;2023-04-25T07:59:28;101508.65;;;7.98;24.34
72330;BME280;69154;52.076;5.110;2023-04-25T08:01:53;101509.37;;;7.09;25.01
72330;BME280;69154;52.076;5.110;2023-04-25T08:04:20;101512.44;;;7.79;26.21
72330;BME280;69154;52.076;5.110;2023-04-25T08:06:45;101513.60;;;7.83;24.42
72330;BME280;69154;52.076;5.110;2023-04-25T08:09:10;101512.43;;;8.59;24.47
72330;BME280;69154;52.076;5.110;2023-04-25T08:11:36;101518.98;;;7.19;24.97
72330;BME280;69154;52.076;5.110;2023-04-25T08:14:01;101520.51;;;6.48;26.33
72330;BME280;69154;52.076;5.110;2023-04-25T08:16:27;101525.82;;;5.53;27.72
72330;BME280;69154;52.076;5.110;2023-04-25T08:18:51;101522.01;;;6.19;27.51
72330;BME280;69154;52.076;5.110;2023-04-25T08:21:17;101524.97;;;7.32;26.58
72330;BME280;69154;52.076;5.110;2023-04-25T08:23:42;101530.35;;;7.39;26.70
72330;BME280;69154;52.076;5.110;2023-04-25T08:26:07;101533.26;;;8.32;25.58
72330;BME280;69154;52.076;5.110;2023-04-25T08:28:33;101536.56;;;9.20;24.40
72330;BME280;69154;52.076;5.110;2023-04-25T08:30:58;101540.38;;;8.32;25.18
72330;BME280;69154;52.076;5.110;2023-04-25T08:33:23;101540.33;;;7.63;26.91
72330;BME280;69154;52.076;5.110;2023-04-25T08:35:49;101542.58;;;8.27;25.31
72330;BME280;69154;52.076;5.110;2023-04-25T08:38:14;101541.25;;;8.18;25.56
72330;BME280;69154;52.076;5.110;2023-04-25T08:40:40;101544.03;;;8.32;24.04
72330;BME280;69154;52.076;5.110;2023-04-25T08:43:06;101548.02;;;10.33;23.90
72330;BME280;69154;52.076;5.110;2023-04-25T08:45:32;101551.58;;;7.46;24.29
72330;BME280;69154;52.076;5.110;2023-04-25T08:47:57;101555.14;;;6.51;28.04
72330;BME280;69154;52.076;5.110;2023-04-25T08:50:22;101560.61;;;7.25;27.26
72330;BME280;69154;52.076;5.110;2023-04-25T08:52:47;101566.57;;;6.82;26.68
72330;BME280;69154;52.076;5.110;2023-04-25T08:55:12;101571.00;;;6.79;27.37
72330;BME280;69154;52.076;5.110;2023-04-25T08:57:38;101576.26;;;4.92;28.55
72330;BME280;69154;52.076;5.110;2023-04-25T09:00:05;101570.92;;;6.91;27.57
72330;BME280;69154;52.076;5.110;2023-04-25T09:02:29;101575.49;;;7.49;27.05
72330;BME280;69154;52.076;5.110;2023-04-25T09:04:54;101580.36;;;8.57;25.84
72330;BME280;69154;52.076;5.110;2023-04-25T09:07:18;101581.64;;;6.95;27.44
72330;BME280;69154;52.076;5.110;2023-04-25T09:09:43;101590.98;;;5.82;27.20
72330;BME280;69154;52.076;5.110;2023-04-25T09:12:09;101596.02;;;5.04;26.51
72330;BME280;69154;52.076;5.110;2023-04-25T09:14:39;101597.25;;;5.82;26.45
72330;BME280;69154;52.076;5.110;2023-04-25T09:17:02;101598.44;;;7.26;25.06
72330;BME280;69154;52.076;5.110;2023-04-25T09:19:26;101602.23;;;8.39;23.76
72330;BME280;69154;52.076;5.110;2023-04-25T09:21:51;101600.97;;;9.45;22.92
72330;BME280;69154;52.076;5.110;2023-04-25T09:24:15;101606.88;;;10.56;22.15
72330;BME280;69154;52.076;5.110;2023-04-25T09:26:40;101609.66;;;9.80;22.19
72330;BME280;69154;52.076;5.110;2023-04-25T09:29:06;101611.97;;;10.39;21.68
72330;BME280;69154;52.076;5.110;2023-04-25T09:31:33;101608.25;;;8.61;22.90
72330;BME280;69154;52.076;5.110;2023-04-25T09:33:59;101610.13;;;8.54;22.88
72330;BME280;69154;52.076;5.110;2023-04-25T09:36:26;101617.09;;;8.05;23.07
72330;BME280;69154;52.076;5.110;2023-04-25T09:38:47;101619.91;;;8.80;23.44
72330;BME280;69154;52.076;5.110;2023-04-25T09:41:12;101621.74;;;8.38;23.31
72330;BME280;69154;52.076;5.110;2023-04-25T09:43:38;101632.20;;;7.60;24.71
72330;BME280;69154;52.076;5.110;2023-04-25T09:46:08;101639.60;;;7.93;24.32
72330;BME280;69154;52.076;5.110;2023-04-25T09:48:28;101650.84;;;5.56;28.28
72330;BME280;69154;52.076;5.110;2023-04-25T09:51:05;101658.52;;;4.46;29.49
72330;BME280;69154;52.076;5.110;2023-04-25T09:53:19;101666.92;;;4.23;31.03
72330;BME280;69154;52.076;5.110;2023-04-25T09:55:45;101663.69;;;4.13;30.42
72330;BME280;69154;52.076;5.110;2023-04-25T09:58:11;101668.94;;;4.34;29.88
72330;BME280;69154;52.076;5.110;2023-04-25T10:00:35;101672.25;;;4.39;29.64
72330;BME280;69154;52.076;5.110;2023-04-25T10:03:01;101676.05;;;5.56;28.68
72330;BME280;69154;52.076;5.110;2023-04-25T10:05:26;101678.68;;;7.24;26.87
72330;BME280;69154;52.076;5.110;2023-04-25T10:07:52;101677.12;;;7.79;25.58
72330;BME280;69154;52.076;5.110;2023-04-25T10:10:16;101677.80;;;8.33;25.23
72330;BME280;69154;52.076;5.110;2023-04-25T10:12:42;101679.19;;;8.57;24.89
72330;BME280;69154;52.076;5.110;2023-04-25T10:15:08;101681.72;;;9.30;24.12
72330;BME280;69154;52.076;5.110;2023-04-25T10:17:32;101679.98;;;10.79;22.66
72330;BME280;69154;52.076;5.110;2023-04-25T10:19:57;101681.04;;;11.93;22.33
72330;BME280;69154;52.076;5.110;2023-04-25T10:22:29;101677.91;;;11.54;21.62
72330;BME280;69154;52.076;5.110;2023-04-25T10:24:49;101679.40;;;12.98;20.98
72330;BME280;69154;52.076;5.110;2023-04-25T10:27:13;101672.80;;;12.78;21.03
72330;BME280;69154;52.076;5.110;2023-04-25T10:29:41;101677.71;;;13.14;20.10
72330;BME280;69154;52.076;5.110;2023-04-25T10:32:04;101678.91;;;13.44;19.82
72330;BME280;69154;52.076;5.110;2023-04-25T10:34:41;101677.80;;;14.78;18.98
72330;BME280;69154;52.076;5.110;2023-04-25T10:36:54;101677.65;;;16.55;17.74
72330;BME280;69154;52.076;5.110;2023-04-25T10:39:24;101678.36;;;13.74;19.04
72330;BME280;69154;52.076;5.110;2023-04-25T10:41:46;101680.63;;;15.39;18.35
72330;BME280;69154;52.076;5.110;2023-04-25T10:44:09;101682.66;;;17.34;17.25
72330;BME280;69154;52.076;5.110;2023-04-25T10:46:34;101681.63;;;16.56;16.12
72330;BME280;69154;52.076;5.110;2023-04-25T10:49:02;101676.35;;;17.88;17.00
72330;BME280;69154;52.076;5.110;2023-04-25T10:51:26;101680.10;;;14.00;18.64
72330;BME280;69154;52.076;5.110;2023-04-25T10:53:59;101677.28;;;15.81;18.10
72330;BME280;69154;52.076;5.110;2023-04-25T10:56:19;101672.08;;;20.50;16.71
72330;BME280;69154;52.076;5.110;2023-04-25T10:58:43;101674.88;;;20.26;15.05
72330;BME280;69154;52.076;5.110;2023-04-25T11:01:06;101677.49;;;16.41;17.16
72330;BME280;69154;52.076;5.110;2023-04-25T11:03:30;101668.92;;;13.36;18.08
72330;BME280;69154;52.076;5.110;2023-04-25T11:05:55;101672.37;;;12.94;19.55
72330;BME280;69154;52.076;5.110;2023-04-25T11:08:37;101676.98;;;8.50;21.89
72330;BME280;69154;52.076;5.110;2023-04-25T11:10:47;101673.51;;;9.10;22.28
72330;BME280;69154;52.076;5.110;2023-04-25T11:13:11;101679.71;;;9.57;22.68
72330;BME280;69154;52.076;5.110;2023-04-25T11:15:37;101686.79;;;9.07;22.81
72330;BME280;69154;52.076;5.110;2023-04-25T11:18:02;101685.45;;;11.40;21.87
72330;BME280;69154;52.076;5.110;2023-04-25T11:20:27;101684.55;;;10.04;23.11
72330;BME280;69154;52.076;5.110;2023-04-25T11:22:52;101695.62;;;8.18;23.57
72330;BME280;69154;52.076;5.110;2023-04-25T11:25:17;101699.87;;;9.95;23.41
72330;BME280;69154;52.076;5.110;2023-04-25T11:27:50;101703.88;;;11.29;22.95
72330;BME280;69154;52.076;5.110;2023-04-25T11:30:13;101703.31;;;14.73;20.10
72330;BME280;69154;52.076;5.110;2023-04-25T11:32:33;101701.68;;;17.56;17.98
72330;BME280;69154;52.076;5.110;2023-04-25T11:34:58;101697.15;;;18.48;16.50
72330;BME280;69154;52.076;5.110;2023-04-25T11:37:23;101698.72;;;18.07;16.59
72330;BME280;69154;52.076;5.110;2023-04-25T11:39:48;101703.03;;;14.57;18.63
72330;BME280;69154;52.076;5.110;2023-04-25T11:42:13;101704.67;;;16.96;16.77
72330;BME280;69154;52.076;5.110;2023-04-25T11:44:38;101697.36;;;19.18;15.42
72330;BME280;69154;52.076;5.110;2023-04-25T11:47:03;101702.69;;;17.77;15.66
72330;BME280;69154;52.076;5.110;2023-04-25T11:49:30;101709.32;;;14.16;17.08
72330;BME280;69154;52.076;5.110;2023-04-25T11:51:53;101725.62;;;13.26;18.43
72330;BME280;69154;52.076;5.110;2023-04-25T11:54:18;101730.66;;;11.60;20.99
72330;BME280;69154;52.076;5.110;2023-04-25T11:56:44;101734.49;;;6.05;26.49
72330;BME280;69154;52.076;5.110;2023-04-25T11:59:10;101726.23;;;5.57;28.59
72330;BME280;69154;52.076;5.110;2023-04-25T12:01:35;101730.93;;;4.70;28.58
72330;BME280;69154;52.076;5.110;2023-04-25T12:04:10;101737.10;;;5.27;30.20
72330;BME280;69154;52.076;5.110;2023-04-25T12:06:28;101739.39;;;5.87;28.37
72330;BME280;69154;52.076;5.110;2023-04-25T12:09:01;101745.04;;;5.64;29.13
72330;BME280;69154;52.076;5.110;2023-04-25T12:11:20;101750.36;;;6.60;27.89
72330;BME280;69154;52.076;5.110;2023-04-25T12:13:43;101748.94;;;8.17;27.30
72330;BME280;69154;52.076;5.110;2023-04-25T12:16:06;101752.02;;;8.43;27.24
72330;BME280;69154;52.076;5.110;2023-04-25T12:18:31;101749.29;;;5.63;26.95
72330;BME280;69154;52.076;5.110;2023-04-25T12:20:57;101743.15;;;8.70;26.60
72330;BME280;69154;52.076;5.110;2023-04-25T12:23:25;101740.87;;;10.15;25.03
72330;BME280;69154;52.076;5.110;2023-04-25T12:25:47;101735.66;;;10.50;23.88
72330;BME280;69154;52.076;5.110;2023-04-25T12:28:14;101743.22;;;13.42;20.92
72330;BME280;69154;52.076;5.110;2023-04-25T12:30:52;101745.51;;;11.32;21.87
72330;BME280;69154;52.076;5.110;2023-04-25T12:33:07;101739.22;;;14.89;20.56
72330;BME280;69154;52.076;5.110;2023-04-25T12:35:28;101735.59;;;15.57;17.69
72330;BME280;69154;52.076;5.110;2023-04-25T12:37:53;101741.52;;;15.85;17.80
72330;BME280;69154;52.076;5.110;2023-04-25T12:40:18;101741.94;;;14.19;18.65
72330;BME280;69154;52.076;5.110;2023-04-25T12:42:44;101745.05;;;11.19;19.44
72330;BME280;69154;52.076;5.110;2023-04-25T12:45:08;101744.06;;;11.69;20.57
72330;BME280;69154;52.076;5.110;2023-04-25T12:47:33;101740.68;;;8.02;22.76